Terminal Aerodrome Forecast
Issued by NWS

Home | Current Version | Previous Version | Text Only | Print | Product List | Glossary On
Versions: 1 2 3 4 5 6 7 8 9 10 11 12 13 14 15 16
253
FTUS43 KMQT 192134 AAA
TAFIWD
TAF AMD
KIWD 192134Z 1922/2018 04010KT 3SM -SN SCT012 OVC025
      TEMPO 1922/2002 1SM -SN OVC012
     FM200200 05010KT 2SM -SN OVC010
     FM200400 06010KT 3SM -SN OVC010
     FM201200 06006KT 1 1/2SM -SN OVC008
     FM201600 03004KT 3SM -SN OVC008=

USA.gov is the U.S. government's official web portal to all federal, state and local government web resources and services.